createdAt,value
2023-05-20T00:01:06.540Z,43.95
2023-05-20T00:03:52.596Z,42.25
2023-05-20T00:06:34.583Z,41.45
2023-05-20T00:09:20.699Z,45.90
2023-05-20T00:11:52.457Z,41.83
2023-05-20T00:14:22.405Z,39.72
2023-05-20T00:16:58.679Z,41.63
2023-05-20T00:19:34.244Z,40.95
2023-05-20T00:22:07.095Z,44.92
2023-05-20T00:27:09.459Z,43.35
2023-05-20T00:29:39.491Z,41.63
2023-05-20T00:32:14.795Z,44.22
2023-05-20T00:34:53.014Z,42.75
2023-05-20T00:37:26.217Z,42.60
2023-05-20T00:39:59.002Z,44.78
2023-05-20T00:45:11.620Z,45.53
2023-05-20T00:47:48.724Z,42.38
2023-05-20T00:50:24.858Z,40.63
2023-05-20T00:52:59.009Z,44.15
2023-05-20T00:55:36.042Z,40.85
2023-05-20T00:58:11.926Z,44.70
2023-05-20T01:00:48.037Z,39.88
2023-05-20T01:03:20.356Z,42.75
2023-05-20T01:06:07.263Z,42.72
2023-05-20T01:08:45.426Z,42.88
2023-05-20T01:11:24.527Z,42.75
2023-05-20T01:14:02.645Z,44.17
2023-05-20T01:16:45.909Z,42.58
2023-05-20T01:22:10.659Z,49.05
2023-05-20T01:24:56.237Z,44.53
2023-05-20T01:27:30.434Z,45.20
2023-05-20T01:30:01.496Z,49.50
2023-05-20T01:32:41.734Z,46.58
2023-05-20T01:35:23.379Z,44.25
2023-05-20T01:38:08.624Z,46.80
2023-05-20T01:40:42.802Z,45.40
2023-05-20T01:43:18.067Z,44.88
2023-05-20T01:45:48.752Z,46.03
2023-05-20T01:48:30.220Z,48.33
2023-05-20T01:51:01.359Z,49.17
2023-05-20T01:56:09.905Z,48.25
2023-05-20T02:01:25.792Z,47.17
2023-05-20T02:04:04.636Z,50.70
2023-05-20T02:06:42.195Z,48.40
2023-05-20T02:09:18.413Z,48.58
2023-05-20T02:12:03.096Z,49.05
2023-05-20T02:14:34.647Z,49.88
2023-05-20T02:17:15.220Z,55.08
2023-05-20T02:19:45.780Z,48.75
2023-05-20T02:22:40.426Z,48.22
2023-05-20T02:25:23.304Z,50.83
2023-05-20T02:27:59.342Z,51.78
2023-05-20T02:30:32.591Z,48.88
2023-05-20T02:33:04.027Z,54.22
2023-05-20T02:35:36.298Z,49.40
2023-05-20T02:38:20.047Z,52.42
2023-05-20T02:40:56.271Z,50.88
2023-05-20T02:43:29.333Z,52.17
2023-05-20T02:46:06.043Z,54.85
2023-05-20T02:48:37.951Z,52.25
2023-05-20T02:51:09.812Z,55.08
2023-05-20T02:53:44.810Z,51.47
2023-05-20T02:56:21.508Z,50.55
2023-05-20T02:59:02.726Z,52.13
2023-05-20T03:01:34.025Z,53.10
2023-05-20T03:04:11.376Z,54.97
2023-05-20T03:06:45.150Z,51.45
2023-05-20T03:09:19.237Z,51.28
2023-05-20T03:11:50.560Z,52.50
2023-05-20T03:14:25.100Z,52.13
2023-05-20T03:17:00.701Z,54.38
2023-05-20T03:19:39.680Z,53.03
2023-05-20T03:22:09.306Z,55.20
2023-05-20T03:24:52.960Z,52.35
2023-05-20T03:27:27.655Z,53.38
2023-05-20T03:30:23.127Z,56.92
2023-05-20T03:33:03.294Z,53.03
2023-05-20T03:35:35.132Z,51.70
2023-05-20T03:38:15.826Z,54.95
2023-05-20T03:40:53.251Z,53.45
2023-05-20T03:43:26.473Z,53.35
2023-05-20T03:46:14.820Z,57.67
2023-05-20T03:48:47.184Z,53.53
2023-05-20T03:51:22.068Z,52.78
2023-05-20T03:54:00.382Z,54.70
2023-05-20T03:56:31.420Z,53.22
2023-05-20T03:59:02.377Z,57.67
2023-05-20T04:01:45.023Z,52.92
2023-05-20T04:04:16.781Z,55.55
2023-05-20T04:06:56.475Z,54.08
2023-05-20T04:09:25.566Z,53.55
2023-05-20T04:11:57.206Z,57.53
2023-05-20T04:14:29.084Z,54.83
2023-05-20T04:17:21.815Z,86.60
2023-05-20T04:19:53.864Z,55.83
2023-05-20T04:22:32.875Z,54.87
2023-05-20T04:25:11.496Z,60.08
2023-05-20T04:27:52.517Z,56.30
2023-05-20T04:30:23.714Z,56.65
2023-05-20T04:33:10.798Z,57.72
2023-05-20T04:35:46.857Z,56.80
2023-05-20T04:38:20.220Z,55.67
2023-05-20T04:40:52.008Z,55.38
2023-05-20T04:43:22.594Z,55.58
2023-05-20T04:45:58.116Z,55.65
2023-05-20T04:48:33.083Z,56.95
2023-05-20T04:51:11.165Z,58.53
2023-05-20T04:53:42.729Z,54.33
2023-05-20T04:56:13.960Z,56.28
2023-05-20T04:58:45.059Z,55.78
2023-05-20T05:01:16.208Z,55.15
2023-05-20T05:03:52.873Z,56.25
2023-05-20T05:06:31.944Z,56.58
2023-05-20T05:09:03.531Z,60.33
2023-05-20T05:11:40.100Z,58.17
2023-05-20T05:14:25.489Z,58.60
2023-05-20T05:16:55.749Z,59.75
2023-05-20T05:19:34.532Z,56.45
2023-05-20T05:22:12.075Z,60.92
2023-05-20T05:24:47.118Z,227.88
2023-05-20T05:27:26.036Z,58.22
2023-05-20T05:29:58.469Z,60.95
2023-05-20T05:32:36.508Z,138.27
2023-05-20T05:35:17.271Z,61.78
2023-05-20T05:37:48.221Z,58.92
2023-05-20T05:40:41.650Z,59.92
2023-05-20T05:43:16.068Z,59.38
2023-05-20T05:45:53.078Z,59.28
2023-05-20T05:48:27.050Z,56.90
2023-05-20T05:51:15.339Z,64.25
2023-05-20T05:53:56.117Z,58.35
2023-05-20T05:56:30.457Z,57.80
2023-05-20T05:59:11.897Z,60.67
2023-05-20T06:01:45.741Z,57.30
2023-05-20T06:04:31.133Z,57.67
2023-05-20T06:07:17.312Z,61.47
2023-05-20T06:10:04.274Z,57.90
2023-05-20T06:12:35.774Z,58.83
2023-05-20T06:15:13.232Z,63.10
2023-05-20T06:17:47.089Z,59.42
2023-05-20T06:20:38.596Z,59.15
2023-05-20T06:23:22.409Z,61.92
2023-05-20T06:26:09.832Z,59.42
2023-05-20T06:28:43.745Z,58.72
2023-05-20T06:31:14.653Z,58.00
2023-05-20T06:33:55.130Z,312.23
2023-05-20T06:36:33.585Z,57.83
2023-05-20T06:39:09.362Z,64.20
2023-05-20T06:41:40.957Z,58.50
2023-05-20T06:44:12.174Z,59.03
2023-05-20T06:46:47.912Z,56.33
2023-05-20T06:49:26.228Z,57.85
2023-05-20T06:51:57.826Z,60.10
2023-05-20T06:54:33.037Z,57.67
2023-05-20T06:57:04.168Z,61.22
2023-05-20T06:59:35.335Z,58.50
2023-05-20T07:02:06.110Z,69.93
2023-05-20T07:04:38.931Z,57.90
2023-05-20T07:07:09.183Z,59.60
2023-05-20T07:09:43.752Z,57.65
2023-05-20T07:12:14.826Z,55.47
2023-05-20T07:14:48.298Z,56.45
2023-05-20T07:17:17.456Z,57.90
2023-05-20T07:19:49.081Z,57.05
2023-05-20T07:22:26.114Z,119.35
2023-05-20T07:25:00.409Z,61.25
2023-05-20T07:27:32.754Z,55.28
2023-05-20T07:30:14.307Z,60.65
2023-05-20T07:32:56.533Z,57.25
2023-05-20T07:35:30.190Z,58.83
2023-05-20T07:38:07.037Z,66.50
2023-05-20T07:40:40.924Z,56.53
2023-05-20T07:43:13.566Z,379.25
2023-05-20T07:45:50.637Z,57.97
2023-05-20T07:48:21.398Z,57.33
2023-05-20T07:51:00.573Z,59.30
2023-05-20T07:53:41.130Z,57.92
2023-05-20T07:56:25.467Z,276.50
2023-05-20T07:59:10.432Z,60.40
2023-05-20T08:01:48.265Z,58.28
2023-05-20T08:04:19.929Z,56.75
2023-05-20T08:06:53.637Z,56.60
2023-05-20T08:09:26.593Z,60.55
2023-05-20T08:14:36.985Z,999.90
2023-05-20T08:17:08.016Z,999.90
2023-05-20T08:19:39.075Z,999.90
2023-05-20T08:22:13.364Z,999.90
2023-05-20T08:24:45.228Z,999.90
2023-05-20T08:27:33.916Z,999.90
2023-05-20T08:30:03.925Z,999.90
2023-05-20T08:32:38.107Z,999.90
2023-05-20T08:35:14.956Z,999.90
2023-05-20T08:37:58.849Z,999.90
2023-05-20T08:40:33.365Z,999.90
2023-05-20T08:43:12.194Z,999.90
2023-05-20T08:45:44.449Z,999.90
2023-05-20T08:48:19.478Z,999.90
2023-05-20T08:50:56.796Z,999.90
2023-05-20T08:53:30.261Z,999.90
2023-05-20T08:56:03.950Z,999.90
2023-05-20T08:58:45.988Z,999.90
2023-05-20T09:01:19.740Z,999.90
2023-05-20T09:03:52.616Z,999.90
2023-05-20T09:06:22.180Z,999.90
2023-05-20T09:08:54.555Z,999.90
2023-05-20T09:11:30.188Z,999.90
2023-05-20T09:14:22.350Z,999.90
2023-05-20T09:17:03.391Z,999.90
2023-05-20T09:19:36.099Z,999.90
2023-05-20T09:22:14.246Z,999.90
2023-05-20T09:24:55.208Z,999.90
2023-05-20T09:27:28.667Z,999.90
2023-05-20T09:30:10.023Z,999.90
2023-05-20T09:32:42.897Z,999.90
2023-05-20T09:35:18.228Z,999.90
2023-05-20T09:37:57.610Z,999.90
2023-05-20T09:40:32.003Z,999.90
2023-05-20T09:43:12.983Z,999.90
2023-05-20T09:45:53.095Z,999.90
2023-05-20T09:48:30.956Z,999.90
2023-05-20T09:51:10.567Z,999.90
2023-05-20T09:53:40.333Z,999.90
2023-05-20T09:56:21.705Z,999.90
2023-05-20T09:58:59.700Z,999.90
2023-05-20T10:01:55.459Z,999.90
2023-05-20T10:04:28.277Z,999.90
2023-05-20T10:07:40.590Z,999.90
2023-05-20T10:10:30.590Z,999.90
2023-05-20T10:13:17.350Z,999.90
2023-05-20T10:15:59.541Z,999.90
2023-05-20T10:18:57.289Z,999.90
2023-05-20T10:21:38.673Z,999.90
2023-05-20T10:24:26.960Z,999.90
2023-05-20T10:27:07.602Z,999.90
2023-05-20T10:29:55.341Z,999.90
2023-05-20T10:32:32.139Z,999.90
2023-05-20T10:35:11.930Z,999.90
2023-05-20T10:37:46.638Z,999.90
2023-05-20T10:40:34.166Z,999.90
2023-05-20T10:43:26.048Z,999.90
2023-05-20T10:46:17.102Z,999.90
2023-05-20T10:49:00.566Z,999.90
2023-05-20T10:51:42.729Z,999.90
2023-05-20T10:54:15.085Z,999.90
2023-05-20T10:56:54.699Z,999.90
2023-05-20T10:59:25.038Z,999.90
2023-05-20T11:02:02.590Z,999.90
2023-05-20T11:04:35.127Z,999.90
2023-05-20T11:07:09.413Z,999.90
2023-05-20T11:09:44.099Z,999.90
2023-05-20T11:12:36.587Z,999.90
2023-05-20T11:15:12.514Z,43.20
2023-05-20T11:20:48.371Z,999.90
2023-05-20T11:23:27.927Z,999.90
2023-05-20T11:25:59.030Z,41.47
2023-05-20T11:28:36.020Z,36.75
2023-05-20T11:31:06.926Z,58.65
2023-05-20T11:33:42.100Z,60.78
2023-05-20T11:36:26.973Z,59.35
2023-05-20T11:39:04.333Z,61.22
2023-05-20T11:41:35.183Z,70.45
2023-05-20T11:44:06.020Z,52.17
2023-05-20T11:47:00.081Z,999.90
2023-05-20T11:49:33.010Z,44.55
2023-05-20T11:52:06.069Z,51.63
2023-05-20T11:54:47.378Z,43.70
2023-05-20T11:57:20.777Z,48.72
2023-05-20T12:00:02.861Z,40.75
2023-05-20T12:02:37.490Z,37.53
2023-05-20T12:05:15.225Z,37.47
2023-05-20T12:07:46.357Z,42.63
2023-05-20T12:10:26.173Z,42.97
2023-05-20T12:12:57.757Z,40.75
2023-05-20T12:15:41.076Z,999.90
2023-05-20T12:20:50.331Z,283.30
2023-05-20T12:23:21.895Z,52.30
2023-05-20T12:25:56.860Z,39.57
2023-05-20T12:28:27.439Z,40.03
2023-05-20T12:31:04.537Z,42.90
2023-05-20T12:33:34.631Z,36.28
2023-05-20T12:36:11.321Z,44.22
2023-05-20T12:38:43.238Z,46.50
2023-05-20T12:41:24.985Z,36.33
2023-05-20T12:43:56.957Z,42.97
2023-05-20T12:46:37.816Z,36.38
2023-05-20T12:49:09.106Z,120.45
2023-05-20T12:51:44.435Z,37.47
2023-05-20T12:54:28.283Z,38.80
2023-05-20T12:57:07.933Z,45.25
2023-05-20T12:59:46.152Z,41.80
2023-05-20T13:02:16.151Z,43.28
2023-05-20T13:04:48.527Z,53.13
2023-05-20T13:07:24.898Z,763.25
2023-05-20T13:09:59.413Z,48.10
2023-05-20T13:12:33.290Z,47.15
2023-05-20T13:15:12.270Z,52.20
2023-05-20T13:17:46.957Z,48.97
2023-05-20T13:20:28.087Z,49.10
2023-05-20T13:23:07.126Z,291.00
2023-05-20T13:25:38.488Z,47.58
2023-05-20T13:28:19.048Z,49.85
2023-05-20T13:30:57.005Z,53.05
2023-05-20T13:33:34.525Z,59.08
2023-05-20T13:36:18.692Z,67.47
2023-05-20T13:39:02.808Z,126.18
2023-05-20T13:41:34.672Z,59.97
2023-05-20T13:44:16.299Z,74.68
2023-05-20T13:46:49.856Z,826.15
2023-05-20T13:49:22.769Z,67.32
2023-05-20T13:51:56.308Z,72.75
2023-05-20T13:54:27.967Z,69.72
2023-05-20T13:56:57.524Z,93.63
2023-05-20T13:59:37.523Z,68.45
2023-05-20T14:02:17.365Z,78.43
2023-05-20T14:04:56.959Z,65.65
2023-05-20T14:07:35.088Z,68.63
2023-05-20T14:10:09.405Z,67.53
2023-05-20T14:12:43.431Z,57.15
2023-05-20T14:15:26.286Z,45.45
2023-05-20T14:17:57.910Z,48.88
2023-05-20T14:20:31.396Z,43.63
2023-05-20T14:23:04.582Z,49.03
2023-05-20T14:25:39.672Z,42.47
2023-05-20T14:28:16.489Z,51.85
2023-05-20T14:30:55.616Z,801.83
2023-05-20T14:33:33.556Z,43.60
2023-05-20T14:36:06.766Z,46.72
2023-05-20T14:38:50.651Z,838.33
2023-05-20T14:41:29.404Z,40.67
2023-05-20T14:46:45.254Z,612.30
2023-05-20T14:49:17.575Z,38.72
2023-05-20T14:51:58.674Z,39.15
2023-05-20T14:54:39.628Z,37.05
2023-05-20T14:57:24.212Z,41.95
2023-05-20T15:00:06.935Z,42.33
2023-05-20T15:02:44.362Z,30.77
2023-05-20T15:05:21.905Z,32.33
2023-05-20T15:07:56.404Z,67.18
2023-05-20T15:10:31.534Z,31.10
2023-05-20T15:13:06.387Z,37.00
2023-05-20T15:15:38.187Z,33.30
2023-05-20T15:18:14.598Z,35.88
2023-05-20T15:20:49.071Z,108.13
2023-05-20T15:23:25.387Z,32.78
2023-05-20T15:25:58.631Z,34.35
2023-05-20T15:28:38.213Z,31.15
2023-05-20T15:31:13.782Z,34.80
2023-05-20T15:34:00.397Z,29.70
2023-05-20T15:36:39.551Z,31.42
2023-05-20T15:39:11.421Z,241.80
2023-05-20T15:41:44.414Z,31.60
2023-05-20T15:47:00.881Z,31.45
2023-05-20T15:49:34.848Z,35.10
2023-05-20T15:54:59.994Z,31.38
2023-05-20T15:57:38.433Z,30.17
2023-05-20T16:00:17.702Z,39.97
2023-05-20T16:02:59.436Z,32.17
2023-05-20T16:05:36.270Z,33.60
2023-05-20T16:08:08.942Z,36.60
2023-05-20T16:10:47.313Z,30.98
2023-05-20T16:13:18.311Z,32.75
2023-05-20T16:15:51.484Z,32.95
2023-05-20T16:18:26.470Z,46.65
2023-05-20T16:21:04.676Z,37.10
2023-05-20T16:23:36.236Z,32.72
2023-05-20T16:26:12.012Z,38.83
2023-05-20T16:28:44.030Z,35.28
2023-05-20T16:31:23.458Z,57.57
2023-05-20T16:36:52.163Z,32.92
2023-05-20T16:39:25.070Z,53.95
2023-05-20T16:44:39.533Z,31.33
2023-05-20T16:47:18.777Z,38.38
2023-05-20T16:49:51.170Z,33.72
2023-05-20T16:52:25.059Z,56.13
2023-05-20T16:55:02.329Z,36.72
2023-05-20T16:57:35.087Z,32.05
2023-05-20T17:02:46.247Z,30.02
2023-05-20T17:05:21.310Z,30.15
2023-05-20T17:08:02.351Z,30.58
2023-05-20T17:13:18.009Z,32.65
2023-05-20T17:15:50.364Z,33.83
2023-05-20T17:18:25.012Z,30.38
2023-05-20T17:20:58.710Z,31.90
2023-05-20T17:23:34.671Z,29.98
2023-05-20T17:26:09.741Z,34.47
2023-05-20T17:28:43.089Z,397.27
2023-05-20T17:31:15.330Z,29.95
2023-05-20T17:33:47.990Z,29.33
2023-05-20T17:36:22.542Z,29.37
2023-05-20T17:39:12.670Z,31.55
2023-05-20T17:41:51.250Z,30.88
2023-05-20T17:44:22.758Z,30.67
2023-05-20T17:49:37.943Z,32.60
2023-05-20T17:52:10.048Z,32.30
2023-05-20T17:54:40.818Z,29.35
2023-05-20T17:57:12.226Z,30.20
2023-05-20T17:59:47.418Z,28.25
2023-05-20T18:02:19.652Z,27.85
2023-05-20T18:04:52.267Z,27.95
2023-05-20T18:07:22.032Z,32.47
2023-05-20T18:12:43.655Z,26.40
2023-05-20T18:15:17.514Z,25.80
2023-05-20T18:17:50.299Z,25.85
2023-05-20T18:23:08.651Z,30.10
2023-05-20T18:28:16.433Z,25.58
2023-05-20T18:31:02.150Z,24.85
2023-05-20T18:33:32.150Z,25.23
2023-05-20T18:36:08.616Z,29.75
2023-05-20T18:38:41.318Z,26.23
2023-05-20T18:43:54.449Z,25.17
2023-05-20T18:46:27.088Z,26.52
2023-05-20T18:49:00.692Z,31.10
2023-05-20T18:51:45.629Z,25.58
2023-05-20T18:54:31.672Z,25.63
2023-05-20T18:57:17.268Z,30.05
2023-05-20T18:59:53.951Z,27.38
2023-05-20T19:02:28.672Z,25.33
2023-05-20T19:04:59.629Z,30.02
2023-05-20T19:07:30.922Z,27.08
2023-05-20T19:10:00.910Z,30.42
2023-05-20T19:12:34.964Z,27.05
2023-05-20T19:15:07.375Z,52.42
2023-05-20T19:17:43.017Z,28.50
2023-05-20T19:20:21.778Z,29.90
2023-05-20T19:22:52.476Z,30.55
2023-05-20T19:25:25.051Z,29.77
2023-05-20T19:27:58.226Z,32.38
2023-05-20T19:33:07.478Z,31.27
2023-05-20T19:35:45.673Z,26.98
2023-05-20T19:38:20.725Z,27.02
2023-05-20T19:40:51.284Z,425.20
2023-05-20T19:43:33.146Z,24.83
2023-05-20T19:46:06.709Z,29.42
2023-05-20T19:48:39.350Z,25.05
2023-05-20T19:51:10.781Z,57.40
2023-05-20T19:56:35.075Z,24.25
2023-05-20T19:59:05.983Z,28.85
2023-05-20T20:01:49.061Z,24.25
2023-05-20T20:04:22.414Z,23.35
2023-05-20T20:06:53.908Z,23.67
2023-05-20T20:09:32.395Z,22.98
2023-05-20T20:12:03.810Z,27.50
2023-05-20T20:14:38.065Z,24.33
2023-05-20T20:17:22.982Z,26.42
2023-05-20T20:19:59.829Z,24.52
2023-05-20T20:22:38.058Z,22.73
2023-05-20T20:25:21.532Z,27.98
2023-05-20T20:30:45.487Z,37.75
2023-05-20T20:33:17.514Z,23.48
2023-05-20T20:35:51.787Z,23.45
2023-05-20T20:38:33.305Z,25.02
2023-05-20T20:41:08.178Z,28.58
2023-05-20T20:43:54.976Z,23.83
2023-05-20T20:46:29.523Z,24.00
2023-05-20T20:49:11.829Z,28.85
2023-05-20T20:51:49.258Z,24.98
2023-05-20T20:54:36.148Z,25.60
2023-05-20T20:57:13.061Z,29.85
2023-05-20T20:59:53.701Z,24.60
2023-05-20T21:02:30.422Z,24.77
2023-05-20T21:05:04.912Z,28.50
2023-05-20T21:07:36.670Z,25.98
2023-05-20T21:10:13.632Z,28.83
2023-05-20T21:12:47.916Z,24.48
2023-05-20T21:15:21.614Z,24.77
2023-05-20T21:18:03.471Z,24.77
2023-05-20T21:20:37.327Z,24.38
2023-05-20T21:23:17.639Z,27.88
2023-05-20T21:25:53.145Z,23.88
2023-05-20T21:28:30.740Z,27.20
2023-05-20T21:31:18.125Z,28.48
2023-05-20T21:34:02.088Z,24.38
2023-05-20T21:36:37.073Z,24.70
2023-05-20T21:39:06.892Z,28.05
2023-05-20T21:41:40.492Z,25.77
2023-05-20T21:44:21.008Z,26.35
2023-05-20T21:47:05.694Z,24.88
2023-05-20T21:49:40.172Z,25.63
2023-05-20T21:52:11.387Z,28.23
2023-05-20T21:54:50.693Z,24.25
2023-05-20T21:57:30.736Z,25.30
2023-05-20T22:00:02.080Z,29.45
2023-05-20T22:02:34.054Z,25.13
2023-05-20T22:05:12.832Z,29.70
2023-05-20T22:07:47.068Z,25.55
2023-05-20T22:10:35.047Z,25.48
2023-05-20T22:13:08.429Z,29.90
2023-05-20T22:15:42.858Z,25.65
2023-05-20T22:18:23.825Z,25.02
2023-05-20T22:21:00.537Z,26.17
2023-05-20T22:23:46.050Z,25.65
2023-05-20T22:26:19.069Z,25.83
2023-05-20T22:28:57.028Z,26.77
2023-05-20T22:31:29.962Z,25.42
2023-05-20T22:34:08.129Z,30.58
2023-05-20T22:36:53.883Z,26.67
2023-05-20T22:39:27.017Z,26.73
2023-05-20T22:42:04.879Z,31.10
2023-05-20T22:44:51.795Z,26.33
2023-05-20T22:47:35.422Z,194.45
2023-05-20T22:50:13.915Z,30.40
2023-05-20T22:52:46.964Z,27.23
2023-05-20T22:57:51.747Z,26.85
2023-05-20T23:00:24.741Z,27.35
2023-05-20T23:02:56.850Z,27.70
2023-05-20T23:05:43.732Z,26.67
2023-05-20T23:08:23.910Z,28.33
2023-05-20T23:10:58.768Z,28.88
2023-05-20T23:13:34.475Z,27.10
2023-05-20T23:16:18.538Z,32.08
2023-05-20T23:18:54.350Z,26.75
2023-05-20T23:21:26.389Z,26.73
2023-05-20T23:24:04.116Z,30.65
2023-05-20T23:26:34.769Z,26.50
2023-05-20T23:29:04.814Z,30.17
2023-05-20T23:31:36.889Z,26.83
2023-05-20T23:34:07.663Z,30.67
2023-05-20T23:36:42.210Z,27.00
2023-05-20T23:39:21.876Z,25.98
2023-05-20T23:42:06.070Z,29.40
2023-05-20T23:47:21.336Z,26.98
2023-05-20T23:49:59.546Z,27.55
2023-05-20T23:52:38.137Z,27.35
2023-05-20T23:55:14.368Z,30.80
2023-05-20T23:57:46.855Z,27.55
